sensor_id;sensor_type;location;lat;lon;timestamp;P1;durP1;ratioP1;P2;durP2;ratioP2
73585;SDS011;61865;50.232;18.614;2023-11-19T00:01:43;83.40;;;40.10;;
73585;SDS011;61865;50.232;18.614;2023-11-19T00:04:07;102.70;;;41.60;;
73585;SDS011;61865;50.232;18.614;2023-11-19T00:06:29;117.35;;;45.78;;
73585;SDS011;61865;50.232;18.614;2023-11-19T00:08:51;98.75;;;42.63;;
73585;SDS011;61865;50.232;18.614;2023-11-19T00:11:14;136.43;;;48.10;;
73585;SDS011;61865;50.232;18.614;2023-11-19T00:13:37;126.15;;;44.58;;
73585;SDS011;61865;50.232;18.614;2023-11-19T00:16:00;138.55;;;45.13;;
73585;SDS011;61865;50.232;18.614;2023-11-19T00:18:24;126.47;;;41.92;;
73585;SDS011;61865;50.232;18.614;2023-11-19T00:20:46;135.30;;;45.00;;
73585;SDS011;61865;50.232;18.614;2023-11-19T00:23:09;129.73;;;42.58;;
73585;SDS011;61865;50.232;18.614;2023-11-19T00:25:31;97.82;;;39.67;;
73585;SDS011;61865;50.232;18.614;2023-11-19T00:27:53;97.43;;;38.05;;
73585;SDS011;61865;50.232;18.614;2023-11-19T00:30:18;79.80;;;31.92;;
73585;SDS011;61865;50.232;18.614;2023-11-19T00:32:40;98.72;;;41.60;;
73585;SDS011;61865;50.232;18.614;2023-11-19T00:35:02;96.53;;;37.83;;
73585;SDS011;61865;50.232;18.614;2023-11-19T00:37:25;61.88;;;27.33;;
73585;SDS011;61865;50.232;18.614;2023-11-19T00:39:48;60.13;;;30.50;;
73585;SDS011;61865;50.232;18.614;2023-11-19T00:42:12;62.78;;;32.30;;
73585;SDS011;61865;50.232;18.614;2023-11-19T00:44:34;58.30;;;30.77;;
73585;SDS011;61865;50.232;18.614;2023-11-19T00:46:58;60.90;;;33.65;;
73585;SDS011;61865;50.232;18.614;2023-11-19T00:49:20;72.93;;;33.53;;
73585;SDS011;61865;50.232;18.614;2023-11-19T00:51:43;65.53;;;33.33;;
73585;SDS011;61865;50.232;18.614;2023-11-19T00:54:06;64.03;;;32.38;;
73585;SDS011;61865;50.232;18.614;2023-11-19T00:56:28;71.30;;;33.58;;
73585;SDS011;61865;50.232;18.614;2023-11-19T00:58:50;72.07;;;31.90;;
73585;SDS011;61865;50.232;18.614;2023-11-19T01:01:13;67.57;;;33.97;;
73585;SDS011;61865;50.232;18.614;2023-11-19T01:03:36;69.55;;;34.25;;
73585;SDS011;61865;50.232;18.614;2023-11-19T01:05:58;82.45;;;35.17;;
73585;SDS011;61865;50.232;18.614;2023-11-19T01:08:22;110.22;;;40.00;;
73585;SDS011;61865;50.232;18.614;2023-11-19T01:10:44;95.10;;;38.13;;
73585;SDS011;61865;50.232;18.614;2023-11-19T01:13:07;87.68;;;36.55;;
73585;SDS011;61865;50.232;18.614;2023-11-19T01:15:30;89.78;;;37.03;;
73585;SDS011;61865;50.232;18.614;2023-11-19T01:17:52;97.70;;;38.25;;
73585;SDS011;61865;50.232;18.614;2023-11-19T01:20:16;91.55;;;37.75;;
73585;SDS011;61865;50.232;18.614;2023-11-19T01:22:38;95.30;;;36.75;;
73585;SDS011;61865;50.232;18.614;2023-11-19T01:25:00;102.25;;;40.03;;
73585;SDS011;61865;50.232;18.614;2023-11-19T01:27:23;117.10;;;39.30;;
73585;SDS011;61865;50.232;18.614;2023-11-19T01:29:45;114.95;;;41.17;;
73585;SDS011;61865;50.232;18.614;2023-11-19T01:32:07;112.18;;;40.10;;
73585;SDS011;61865;50.232;18.614;2023-11-19T01:34:30;98.22;;;40.47;;
73585;SDS011;61865;50.232;18.614;2023-11-19T01:36:53;114.47;;;41.50;;
73585;SDS011;61865;50.232;18.614;2023-11-19T01:39:16;133.02;;;41.88;;
73585;SDS011;61865;50.232;18.614;2023-11-19T01:41:40;104.57;;;39.78;;
73585;SDS011;61865;50.232;18.614;2023-11-19T01:44:02;112.95;;;41.88;;
73585;SDS011;61865;50.232;18.614;2023-11-19T01:46:25;111.57;;;40.88;;
73585;SDS011;61865;50.232;18.614;2023-11-19T01:48:47;97.63;;;37.55;;
73585;SDS011;61865;50.232;18.614;2023-11-19T01:51:09;95.03;;;36.28;;
73585;SDS011;61865;50.232;18.614;2023-11-19T01:53:34;84.18;;;35.83;;
73585;SDS011;61865;50.232;18.614;2023-11-19T01:55:56;77.25;;;36.22;;
73585;SDS011;61865;50.232;18.614;2023-11-19T01:58:19;85.40;;;33.92;;
73585;SDS011;61865;50.232;18.614;2023-11-19T02:00:41;75.13;;;34.80;;
73585;SDS011;61865;50.232;18.614;2023-11-19T02:03:04;75.70;;;33.20;;
73585;SDS011;61865;50.232;18.614;2023-11-19T02:05:28;71.88;;;33.28;;
73585;SDS011;61865;50.232;18.614;2023-11-19T02:07:52;66.20;;;32.38;;
73585;SDS011;61865;50.232;18.614;2023-11-19T02:10:16;58.35;;;31.02;;
73585;SDS011;61865;50.232;18.614;2023-11-19T02:12:39;63.22;;;30.35;;
73585;SDS011;61865;50.232;18.614;2023-11-19T02:15:04;68.85;;;31.67;;
73585;SDS011;61865;50.232;18.614;2023-11-19T02:17:26;82.28;;;33.45;;
73585;SDS011;61865;50.232;18.614;2023-11-19T02:19:49;81.70;;;32.90;;
73585;SDS011;61865;50.232;18.614;2023-11-19T02:22:11;69.30;;;30.27;;
73585;SDS011;61865;50.232;18.614;2023-11-19T02:24:33;59.72;;;28.67;;
73585;SDS011;61865;50.232;18.614;2023-11-19T02:26:59;54.35;;;25.05;;
73585;SDS011;61865;50.232;18.614;2023-11-19T02:29:27;62.28;;;26.95;;
73585;SDS011;61865;50.232;18.614;2023-11-19T02:31:49;54.30;;;27.77;;
73585;SDS011;61865;50.232;18.614;2023-11-19T02:34:11;50.83;;;26.15;;
73585;SDS011;61865;50.232;18.614;2023-11-19T02:36:34;44.30;;;26.00;;
73585;SDS011;61865;50.232;18.614;2023-11-19T02:38:56;46.90;;;25.10;;
73585;SDS011;61865;50.232;18.614;2023-11-19T02:41:18;58.92;;;26.60;;
73585;SDS011;61865;50.232;18.614;2023-11-19T02:43:40;54.33;;;25.15;;
73585;SDS011;61865;50.232;18.614;2023-11-19T02:46:04;52.35;;;24.48;;
73585;SDS011;61865;50.232;18.614;2023-11-19T02:48:27;55.75;;;26.73;;
73585;SDS011;61865;50.232;18.614;2023-11-19T02:50:50;58.92;;;27.27;;
73585;SDS011;61865;50.232;18.614;2023-11-19T02:53:12;54.22;;;26.20;;
73585;SDS011;61865;50.232;18.614;2023-11-19T02:55:36;48.60;;;27.60;;
73585;SDS011;61865;50.232;18.614;2023-11-19T02:58:01;52.15;;;25.38;;
73585;SDS011;61865;50.232;18.614;2023-11-19T03:00:25;56.05;;;27.85;;
73585;SDS011;61865;50.232;18.614;2023-11-19T03:02:56;62.83;;;29.67;;
73585;SDS011;61865;50.232;18.614;2023-11-19T03:05:19;55.90;;;27.45;;
73585;SDS011;61865;50.232;18.614;2023-11-19T03:07:42;55.53;;;28.83;;
73585;SDS011;61865;50.232;18.614;2023-11-19T03:10:05;60.28;;;29.25;;
73585;SDS011;61865;50.232;18.614;2023-11-19T03:12:29;51.60;;;28.83;;
73585;SDS011;61865;50.232;18.614;2023-11-19T03:14:51;53.17;;;29.48;;
73585;SDS011;61865;50.232;18.614;2023-11-19T03:17:13;54.33;;;28.20;;
73585;SDS011;61865;50.232;18.614;2023-11-19T03:19:37;57.60;;;27.33;;
73585;SDS011;61865;50.232;18.614;2023-11-19T03:22:00;50.53;;;25.45;;
73585;SDS011;61865;50.232;18.614;2023-11-19T03:24:23;50.13;;;25.38;;
73585;SDS011;61865;50.232;18.614;2023-11-19T03:26:47;68.70;;;29.27;;
73585;SDS011;61865;50.232;18.614;2023-11-19T03:29:10;70.90;;;29.10;;
73585;SDS011;61865;50.232;18.614;2023-11-19T03:31:32;66.57;;;28.85;;
73585;SDS011;61865;50.232;18.614;2023-11-19T03:33:54;72.05;;;30.02;;
73585;SDS011;61865;50.232;18.614;2023-11-19T03:36:18;75.38;;;29.73;;
73585;SDS011;61865;50.232;18.614;2023-11-19T03:38:41;75.78;;;29.25;;
73585;SDS011;61865;50.232;18.614;2023-11-19T03:41:09;72.32;;;30.33;;
73585;SDS011;61865;50.232;18.614;2023-11-19T03:43:32;75.03;;;29.52;;
73585;SDS011;61865;50.232;18.614;2023-11-19T03:45:54;61.42;;;28.15;;
73585;SDS011;61865;50.232;18.614;2023-11-19T03:48:17;57.08;;;28.75;;
73585;SDS011;61865;50.232;18.614;2023-11-19T03:50:39;51.47;;;23.83;;
73585;SDS011;61865;50.232;18.614;2023-11-19T03:53:03;48.17;;;22.30;;
73585;SDS011;61865;50.232;18.614;2023-11-19T03:55:26;47.67;;;22.92;;
73585;SDS011;61865;50.232;18.614;2023-11-19T03:57:49;51.25;;;22.98;;
73585;SDS011;61865;50.232;18.614;2023-11-19T04:00:12;50.40;;;23.20;;
73585;SDS011;61865;50.232;18.614;2023-11-19T04:02:34;62.10;;;28.35;;
73585;SDS011;61865;50.232;18.614;2023-11-19T04:04:56;54.78;;;26.05;;
73585;SDS011;61865;50.232;18.614;2023-11-19T04:07:19;57.83;;;26.48;;
73585;SDS011;61865;50.232;18.614;2023-11-19T04:09:43;58.55;;;27.10;;
73585;SDS011;61865;50.232;18.614;2023-11-19T04:12:07;53.50;;;25.45;;
73585;SDS011;61865;50.232;18.614;2023-11-19T04:14:29;60.10;;;26.48;;
73585;SDS011;61865;50.232;18.614;2023-11-19T04:16:51;50.78;;;25.17;;
73585;SDS011;61865;50.232;18.614;2023-11-19T04:19:14;48.63;;;25.83;;
73585;SDS011;61865;50.232;18.614;2023-11-19T04:21:36;46.47;;;25.08;;
73585;SDS011;61865;50.232;18.614;2023-11-19T04:23:58;50.20;;;24.55;;
73585;SDS011;61865;50.232;18.614;2023-11-19T04:26:22;52.38;;;25.08;;
73585;SDS011;61865;50.232;18.614;2023-11-19T04:28:44;59.28;;;22.67;;
73585;SDS011;61865;50.232;18.614;2023-11-19T04:31:06;45.75;;;22.85;;
73585;SDS011;61865;50.232;18.614;2023-11-19T04:33:29;48.10;;;24.75;;
73585;SDS011;61865;50.232;18.614;2023-11-19T04:35:51;58.22;;;26.60;;
73585;SDS011;61865;50.232;18.614;2023-11-19T04:38:14;57.15;;;26.77;;
73585;SDS011;61865;50.232;18.614;2023-11-19T04:40:36;51.47;;;26.50;;
73585;SDS011;61865;50.232;18.614;2023-11-19T04:42:59;50.47;;;27.45;;
73585;SDS011;61865;50.232;18.614;2023-11-19T04:45:22;52.13;;;26.75;;
73585;SDS011;61865;50.232;18.614;2023-11-19T04:47:44;53.67;;;26.65;;
73585;SDS011;61865;50.232;18.614;2023-11-19T04:50:06;54.83;;;28.00;;
73585;SDS011;61865;50.232;18.614;2023-11-19T04:52:30;53.33;;;28.50;;
73585;SDS011;61865;50.232;18.614;2023-11-19T04:54:53;59.42;;;29.48;;
73585;SDS011;61865;50.232;18.614;2023-11-19T04:57:15;58.60;;;28.95;;
73585;SDS011;61865;50.232;18.614;2023-11-19T04:59:38;53.40;;;28.42;;
73585;SDS011;61865;50.232;18.614;2023-11-19T05:02:01;68.30;;;29.80;;
73585;SDS011;61865;50.232;18.614;2023-11-19T05:04:24;50.50;;;28.48;;
73585;SDS011;61865;50.232;18.614;2023-11-19T05:06:46;52.17;;;28.13;;
73585;SDS011;61865;50.232;18.614;2023-11-19T05:09:08;54.85;;;28.38;;
73585;SDS011;61865;50.232;18.614;2023-11-19T05:11:33;51.10;;;26.92;;
73585;SDS011;61865;50.232;18.614;2023-11-19T05:13:55;62.92;;;30.23;;
73585;SDS011;61865;50.232;18.614;2023-11-19T05:16:19;63.13;;;31.08;;
73585;SDS011;61865;50.232;18.614;2023-11-19T05:18:41;57.88;;;28.98;;
73585;SDS011;61865;50.232;18.614;2023-11-19T05:21:04;51.90;;;28.30;;
73585;SDS011;61865;50.232;18.614;2023-11-19T05:23:26;53.60;;;28.27;;
73585;SDS011;61865;50.232;18.614;2023-11-19T05:25:49;58.97;;;31.17;;
73585;SDS011;61865;50.232;18.614;2023-11-19T05:28:11;51.83;;;28.98;;
73585;SDS011;61865;50.232;18.614;2023-11-19T05:30:34;61.28;;;31.08;;
73585;SDS011;61865;50.232;18.614;2023-11-19T05:32:58;55.33;;;32.17;;
73585;SDS011;61865;50.232;18.614;2023-11-19T05:35:21;61.63;;;30.40;;
73585;SDS011;61865;50.232;18.614;2023-11-19T05:37:43;56.58;;;30.52;;
73585;SDS011;61865;50.232;18.614;2023-11-19T05:40:05;52.75;;;30.70;;
73585;SDS011;61865;50.232;18.614;2023-11-19T05:42:34;56.70;;;30.63;;
73585;SDS011;61865;50.232;18.614;2023-11-19T05:44:56;57.63;;;30.38;;
73585;SDS011;61865;50.232;18.614;2023-11-19T05:47:18;60.47;;;31.23;;
73585;SDS011;61865;50.232;18.614;2023-11-19T05:49:42;52.67;;;28.83;;
73585;SDS011;61865;50.232;18.614;2023-11-19T05:52:04;56.58;;;30.17;;
73585;SDS011;61865;50.232;18.614;2023-11-19T05:54:27;54.85;;;31.17;;
73585;SDS011;61865;50.232;18.614;2023-11-19T05:56:50;54.55;;;29.45;;
73585;SDS011;61865;50.232;18.614;2023-11-19T05:59:14;47.95;;;26.88;;
73585;SDS011;61865;50.232;18.614;2023-11-19T06:01:37;46.80;;;27.48;;
73585;SDS011;61865;50.232;18.614;2023-11-19T06:04:01;54.38;;;28.95;;
73585;SDS011;61865;50.232;18.614;2023-11-19T06:08:46;43.28;;;26.17;;
73585;SDS011;61865;50.232;18.614;2023-11-19T06:11:09;55.58;;;28.17;;
73585;SDS011;61865;50.232;18.614;2023-11-19T06:13:34;45.83;;;26.73;;
73585;SDS011;61865;50.232;18.614;2023-11-19T06:15:57;48.50;;;27.67;;
73585;SDS011;61865;50.232;18.614;2023-11-19T06:18:19;50.05;;;27.48;;
73585;SDS011;61865;50.232;18.614;2023-11-19T06:20:41;51.53;;;27.02;;
73585;SDS011;61865;50.232;18.614;2023-11-19T06:23:04;47.47;;;28.08;;
73585;SDS011;61865;50.232;18.614;2023-11-19T06:25:28;45.90;;;25.55;;
73585;SDS011;61865;50.232;18.614;2023-11-19T06:27:50;50.60;;;26.08;;
73585;SDS011;61865;50.232;18.614;2023-11-19T06:30:13;42.75;;;22.70;;
73585;SDS011;61865;50.232;18.614;2023-11-19T06:32:35;52.47;;;25.55;;
73585;SDS011;61865;50.232;18.614;2023-11-19T06:34:57;48.80;;;25.67;;
73585;SDS011;61865;50.232;18.614;2023-11-19T06:37:19;46.58;;;24.20;;
73585;SDS011;61865;50.232;18.614;2023-11-19T06:39:42;45.65;;;26.05;;
73585;SDS011;61865;50.232;18.614;2023-11-19T06:42:06;51.58;;;25.35;;
73585;SDS011;61865;50.232;18.614;2023-11-19T06:44:28;54.28;;;28.42;;
73585;SDS011;61865;50.232;18.614;2023-11-19T06:46:50;57.95;;;26.00;;
73585;SDS011;61865;50.232;18.614;2023-11-19T06:49:13;54.63;;;28.40;;
73585;SDS011;61865;50.232;18.614;2023-11-19T06:51:41;65.65;;;32.05;;
73585;SDS011;61865;50.232;18.614;2023-11-19T06:54:04;49.58;;;27.85;;
73585;SDS011;61865;50.232;18.614;2023-11-19T06:56:26;45.33;;;26.17;;
73585;SDS011;61865;50.232;18.614;2023-11-19T06:58:50;45.78;;;25.35;;
73585;SDS011;61865;50.232;18.614;2023-11-19T07:01:12;48.58;;;24.73;;
73585;SDS011;61865;50.232;18.614;2023-11-19T07:03:35;41.85;;;25.35;;
73585;SDS011;61865;50.232;18.614;2023-11-19T07:05:57;46.80;;;25.60;;
73585;SDS011;61865;50.232;18.614;2023-11-19T07:08:19;54.65;;;26.95;;
73585;SDS011;61865;50.232;18.614;2023-11-19T07:10:42;49.00;;;25.88;;
73585;SDS011;61865;50.232;18.614;2023-11-19T07:13:04;54.72;;;28.70;;
73585;SDS011;61865;50.232;18.614;2023-11-19T07:15:27;56.85;;;29.17;;
73585;SDS011;61865;50.232;18.614;2023-11-19T07:17:50;58.20;;;28.48;;
73585;SDS011;61865;50.232;18.614;2023-11-19T07:20:14;61.63;;;29.38;;
73585;SDS011;61865;50.232;18.614;2023-11-19T07:22:36;52.03;;;27.42;;
73585;SDS011;61865;50.232;18.614;2023-11-19T07:24:59;56.97;;;27.08;;
73585;SDS011;61865;50.232;18.614;2023-11-19T07:27:21;45.70;;;25.88;;
73585;SDS011;61865;50.232;18.614;2023-11-19T07:29:45;39.53;;;22.85;;
73585;SDS011;61865;50.232;18.614;2023-11-19T07:32:09;38.78;;;22.10;;
73585;SDS011;61865;50.232;18.614;2023-11-19T07:34:33;34.40;;;19.73;;
73585;SDS011;61865;50.232;18.614;2023-11-19T07:36:56;39.03;;;20.70;;
73585;SDS011;61865;50.232;18.614;2023-11-19T07:39:22;33.67;;;18.85;;
73585;SDS011;61865;50.232;18.614;2023-11-19T07:41:44;41.60;;;20.42;;
73585;SDS011;61865;50.232;18.614;2023-11-19T07:44:06;35.17;;;19.90;;
73585;SDS011;61865;50.232;18.614;2023-11-19T07:46:29;41.65;;;21.77;;
73585;SDS011;61865;50.232;18.614;2023-11-19T07:51:14;36.55;;;17.08;;
73585;SDS011;61865;50.232;18.614;2023-11-19T07:53:36;36.30;;;20.27;;
73585;SDS011;61865;50.232;18.614;2023-11-19T07:55:58;40.75;;;19.67;;
73585;SDS011;61865;50.232;18.614;2023-11-19T07:58:21;39.67;;;20.73;;
73585;SDS011;61865;50.232;18.614;2023-11-19T08:00:43;37.35;;;18.67;;
73585;SDS011;61865;50.232;18.614;2023-11-19T08:03:05;36.58;;;19.17;;
73585;SDS011;61865;50.232;18.614;2023-11-19T08:05:28;36.53;;;19.20;;
73585;SDS011;61865;50.232;18.614;2023-11-19T08:07:52;43.03;;;19.50;;
73585;SDS011;61865;50.232;18.614;2023-11-19T08:10:14;36.80;;;20.02;;
73585;SDS011;61865;50.232;18.614;2023-11-19T08:12:36;37.33;;;20.90;;
73585;SDS011;61865;50.232;18.614;2023-11-19T08:14:58;40.90;;;20.98;;
73585;SDS011;61865;50.232;18.614;2023-11-19T08:17:21;32.47;;;19.52;;
73585;SDS011;61865;50.232;18.614;2023-11-19T08:19:44;44.05;;;20.67;;
73585;SDS011;61865;50.232;18.614;2023-11-19T08:22:06;35.95;;;22.20;;
73585;SDS011;61865;50.232;18.614;2023-11-19T08:24:30;41.10;;;22.73;;
73585;SDS011;61865;50.232;18.614;2023-11-19T08:26:53;31.92;;;18.60;;
73585;SDS011;61865;50.232;18.614;2023-11-19T08:29:15;41.63;;;20.80;;
73585;SDS011;61865;50.232;18.614;2023-11-19T08:31:38;39.30;;;21.52;;
73585;SDS011;61865;50.232;18.614;2023-11-19T08:34:00;40.53;;;23.60;;
73585;SDS011;61865;50.232;18.614;2023-11-19T08:36:23;41.63;;;22.98;;
73585;SDS011;61865;50.232;18.614;2023-11-19T08:38:45;42.35;;;23.98;;
73585;SDS011;61865;50.232;18.614;2023-11-19T08:41:09;37.22;;;21.77;;
73585;SDS011;61865;50.232;18.614;2023-11-19T08:43:32;38.22;;;22.50;;
73585;SDS011;61865;50.232;18.614;2023-11-19T08:45:54;43.47;;;22.80;;
73585;SDS011;61865;50.232;18.614;2023-11-19T08:48:16;39.42;;;22.30;;
73585;SDS011;61865;50.232;18.614;2023-11-19T08:50:38;40.53;;;21.80;;
73585;SDS011;61865;50.232;18.614;2023-11-19T08:53:01;43.95;;;22.63;;
73585;SDS011;61865;50.232;18.614;2023-11-19T08:55:26;46.65;;;23.80;;
73585;SDS011;61865;50.232;18.614;2023-11-19T08:57:50;44.40;;;23.17;;
73585;SDS011;61865;50.232;18.614;2023-11-19T09:00:12;47.75;;;26.95;;
73585;SDS011;61865;50.232;18.614;2023-11-19T09:02:35;39.28;;;22.35;;
73585;SDS011;61865;50.232;18.614;2023-11-19T09:04:58;36.70;;;21.08;;
73585;SDS011;61865;50.232;18.614;2023-11-19T09:07:20;41.55;;;20.80;;
73585;SDS011;61865;50.232;18.614;2023-11-19T09:09:43;36.35;;;20.05;;
73585;SDS011;61865;50.232;18.614;2023-11-19T09:12:06;37.80;;;21.10;;
73585;SDS011;61865;50.232;18.614;2023-11-19T09:17:01;39.17;;;21.63;;
73585;SDS011;61865;50.232;18.614;2023-11-19T10:04:40;21.75;;;11.50;;
73585;SDS011;61865;50.232;18.614;2023-11-19T10:07:05;21.88;;;8.93;;
73585;SDS011;61865;50.232;18.614;2023-11-19T10:09:27;17.33;;;10.30;;
73585;SDS011;61865;50.232;18.614;2023-11-19T10:11:50;24.15;;;12.65;;
73585;SDS011;61865;50.232;18.614;2023-11-19T10:14:12;19.83;;;10.85;;
73585;SDS011;61865;50.232;18.614;2023-11-19T10:16:35;19.85;;;9.75;;
73585;SDS011;61865;50.232;18.614;2023-11-19T10:21:19;16.92;;;9.38;;
73585;SDS011;61865;50.232;18.614;2023-11-19T10:23:48;13.52;;;8.27;;
73585;SDS011;61865;50.232;18.614;2023-11-19T10:26:13;11.82;;;8.13;;
73585;SDS011;61865;50.232;18.614;2023-11-19T10:28:38;15.25;;;8.38;;
73585;SDS011;61865;50.232;18.614;2023-11-19T10:31:04;21.40;;;9.73;;
73585;SDS011;61865;50.232;18.614;2023-11-19T10:33:27;17.55;;;9.18;;
73585;SDS011;61865;50.232;18.614;2023-11-19T10:35:52;14.95;;;8.98;;
73585;SDS011;61865;50.232;18.614;2023-11-19T10:38:18;22.92;;;11.73;;
73585;SDS011;61865;50.232;18.614;2023-11-19T10:40:40;25.27;;;14.63;;
73585;SDS011;61865;50.232;18.614;2023-11-19T10:43:03;18.33;;;10.43;;
73585;SDS011;61865;50.232;18.614;2023-11-19T10:45:26;23.02;;;11.85;;
73585;SDS011;61865;50.232;18.614;2023-11-19T10:47:49;19.52;;;11.73;;
73585;SDS011;61865;50.232;18.614;2023-11-19T10:50:12;20.00;;;11.63;;
73585;SDS011;61865;50.232;18.614;2023-11-19T10:52:34;24.50;;;14.32;;
73585;SDS011;61865;50.232;18.614;2023-11-19T10:54:59;19.98;;;12.38;;
73585;SDS011;61865;50.232;18.614;2023-11-19T10:57:25;17.40;;;11.30;;
73585;SDS011;61865;50.232;18.614;2023-11-19T10:59:52;22.35;;;12.45;;
73585;SDS011;61865;50.232;18.614;2023-11-19T11:02:19;18.45;;;12.02;;
73585;SDS011;61865;50.232;18.614;2023-11-19T11:04:44;19.98;;;10.60;;
73585;SDS011;61865;50.232;18.614;2023-11-19T11:07:08;18.50;;;11.85;;
73585;SDS011;61865;50.232;18.614;2023-11-19T11:09:31;18.38;;;11.38;;
73585;SDS011;61865;50.232;18.614;2023-11-19T11:11:55;21.15;;;11.68;;
73585;SDS011;61865;50.232;18.614;2023-11-19T11:14:19;22.83;;;11.73;;
73585;SDS011;61865;50.232;18.614;2023-11-19T11:16:43;19.98;;;11.82;;
73585;SDS011;61865;50.232;18.614;2023-11-19T11:19:06;29.58;;;13.65;;
73585;SDS011;61865;50.232;18.614;2023-11-19T11:21:29;26.67;;;13.38;;
73585;SDS011;61865;50.232;18.614;2023-11-19T11:24:05;29.60;;;13.02;;
73585;SDS011;61865;50.232;18.614;2023-11-19T11:29:21;25.45;;;15.38;;
73585;SDS011;61865;50.232;18.614;2023-11-19T11:31:48;24.13;;;13.80;;
73585;SDS011;61865;50.232;18.614;2023-11-19T11:34:16;24.38;;;12.98;;
73585;SDS011;61865;50.232;18.614;2023-11-19T11:36:43;28.40;;;15.20;;
73585;SDS011;61865;50.232;18.614;2023-11-19T11:39:08;32.95;;;16.92;;
73585;SDS011;61865;50.232;18.614;2023-11-19T11:41:31;29.50;;;16.27;;
73585;SDS011;61865;50.232;18.614;2023-11-19T11:43:53;26.80;;;14.95;;
73585;SDS011;61865;50.232;18.614;2023-11-19T11:49:00;36.72;;;15.70;;
73585;SDS011;61865;50.232;18.614;2023-11-19T11:51:36;34.65;;;14.50;;
73585;SDS011;61865;50.232;18.614;2023-11-19T11:54:25;26.58;;;14.88;;
73585;SDS011;61865;50.232;18.614;2023-11-19T11:57:00;30.42;;;15.45;;
73585;SDS011;61865;50.232;18.614;2023-11-19T11:59:23;28.23;;;14.60;;
73585;SDS011;61865;50.232;18.614;2023-11-19T12:01:57;33.00;;;16.48;;
73585;SDS011;61865;50.232;18.614;2023-11-19T12:04:22;26.30;;;15.55;;
73585;SDS011;61865;50.232;18.614;2023-11-19T12:07:02;27.20;;;14.10;;
73585;SDS011;61865;50.232;18.614;2023-11-19T12:09:25;26.25;;;14.80;;
73585;SDS011;61865;50.232;18.614;2023-11-19T12:11:48;23.75;;;13.05;;
73585;SDS011;61865;50.232;18.614;2023-11-19T12:14:10;26.25;;;14.60;;
73585;SDS011;61865;50.232;18.614;2023-11-19T12:16:33;31.80;;;16.40;;
73585;SDS011;61865;50.232;18.614;2023-11-19T12:19:02;22.70;;;14.85;;
73585;SDS011;61865;50.232;18.614;2023-11-19T12:21:30;28.08;;;14.15;;
73585;SDS011;61865;50.232;18.614;2023-11-19T12:23:53;25.27;;;15.05;;
73585;SDS011;61865;50.232;18.614;2023-11-19T12:26:21;27.17;;;14.38;;
73585;SDS011;61865;50.232;18.614;2023-11-19T12:29:00;24.58;;;13.80;;
73585;SDS011;61865;50.232;18.614;2023-11-19T12:31:23;27.58;;;15.63;;
73585;SDS011;61865;50.232;18.614;2023-11-19T12:33:50;37.42;;;20.48;;
73585;SDS011;61865;50.232;18.614;2023-11-19T12:36:13;34.63;;;19.73;;
73585;SDS011;61865;50.232;18.614;2023-11-19T12:38:36;33.60;;;18.45;;
73585;SDS011;61865;50.232;18.614;2023-11-19T12:41:02;29.27;;;16.73;;
73585;SDS011;61865;50.232;18.614;2023-11-19T12:43:25;27.88;;;15.63;;
73585;SDS011;61865;50.232;18.614;2023-11-19T12:45:47;34.25;;;18.40;;
73585;SDS011;61865;50.232;18.614;2023-11-19T12:48:09;28.33;;;17.63;;
73585;SDS011;61865;50.232;18.614;2023-11-19T12:53:09;28.48;;;17.58;;
73585;SDS011;61865;50.232;18.614;2023-11-19T12:55:33;24.75;;;15.55;;
73585;SDS011;61865;50.232;18.614;2023-11-19T12:57:55;31.40;;;17.83;;
73585;SDS011;61865;50.232;18.614;2023-11-19T13:00:19;34.03;;;17.95;;
73585;SDS011;61865;50.232;18.614;2023-11-19T13:02:45;25.30;;;14.30;;
73585;SDS011;61865;50.232;18.614;2023-11-19T13:05:20;19.58;;;11.10;;
73585;SDS011;61865;50.232;18.614;2023-11-19T13:07:42;19.52;;;12.77;;
73585;SDS011;61865;50.232;18.614;2023-11-19T13:10:05;17.23;;;10.60;;
73585;SDS011;61865;50.232;18.614;2023-11-19T13:12:29;16.75;;;9.23;;
73585;SDS011;61865;50.232;18.614;2023-11-19T13:14:51;17.38;;;10.57;;
73585;SDS011;61865;50.232;18.614;2023-11-19T13:17:14;20.45;;;11.43;;
73585;SDS011;61865;50.232;18.614;2023-11-19T13:19:36;16.45;;;10.73;;
73585;SDS011;61865;50.232;18.614;2023-11-19T13:21:58;20.55;;;10.00;;
73585;SDS011;61865;50.232;18.614;2023-11-19T13:24:21;16.67;;;9.93;;
73585;SDS011;61865;50.232;18.614;2023-11-19T13:26:43;20.75;;;10.23;;
73585;SDS011;61865;50.232;18.614;2023-11-19T13:29:07;14.23;;;10.05;;
73585;SDS011;61865;50.232;18.614;2023-11-19T13:31:30;20.05;;;10.30;;
73585;SDS011;61865;50.232;18.614;2023-11-19T13:33:52;15.27;;;10.07;;
73585;SDS011;61865;50.232;18.614;2023-11-19T13:36:15;17.23;;;9.98;;
73585;SDS011;61865;50.232;18.614;2023-11-19T13:38:37;18.65;;;9.65;;
73585;SDS011;61865;50.232;18.614;2023-11-19T13:41:01;18.00;;;10.02;;
73585;SDS011;61865;50.232;18.614;2023-11-19T13:43:24;14.38;;;8.73;;
73585;SDS011;61865;50.232;18.614;2023-11-19T13:45:49;17.67;;;9.65;;
73585;SDS011;61865;50.232;18.614;2023-11-19T13:48:13;13.95;;;9.25;;
73585;SDS011;61865;50.232;18.614;2023-11-19T13:50:36;17.13;;;9.68;;
73585;SDS011;61865;50.232;18.614;2023-11-19T13:52:58;14.80;;;9.20;;
73585;SDS011;61865;50.232;18.614;2023-11-19T13:55:20;17.50;;;9.13;;
73585;SDS011;61865;50.232;18.614;2023-11-19T13:57:43;17.98;;;9.65;;
73585;SDS011;61865;50.232;18.614;2023-11-19T14:00:07;15.00;;;10.02;;
73585;SDS011;61865;50.232;18.614;2023-11-19T14:02:34;16.08;;;9.60;;
73585;SDS011;61865;50.232;18.614;2023-11-19T14:04:56;17.80;;;10.98;;
73585;SDS011;61865;50.232;18.614;2023-11-19T14:07:21;14.20;;;9.43;;
73585;SDS011;61865;50.232;18.614;2023-11-19T14:09:43;13.70;;;8.90;;
73585;SDS011;61865;50.232;18.614;2023-11-19T14:12:07;14.95;;;9.45;;
73585;SDS011;61865;50.232;18.614;2023-11-19T14:14:30;15.98;;;7.82;;
73585;SDS011;61865;50.232;18.614;2023-11-19T14:16:52;15.10;;;7.85;;
73585;SDS011;61865;50.232;18.614;2023-11-19T14:19:16;11.63;;;6.95;;
73585;SDS011;61865;50.232;18.614;2023-11-19T14:21:38;10.85;;;7.00;;
73585;SDS011;61865;50.232;18.614;2023-11-19T14:24:00;10.88;;;6.00;;
73585;SDS011;61865;50.232;18.614;2023-11-19T14:26:23;15.68;;;6.43;;
73585;SDS011;61865;50.232;18.614;2023-11-19T14:28:45;13.18;;;7.55;;
73585;SDS011;61865;50.232;18.614;2023-11-19T14:31:08;13.20;;;7.40;;
73585;SDS011;61865;50.232;18.614;2023-11-19T14:33:30;16.60;;;8.35;;
73585;SDS011;61865;50.232;18.614;2023-11-19T14:35:56;14.30;;;7.28;;
73585;SDS011;61865;50.232;18.614;2023-11-19T14:38:18;13.77;;;7.57;;
73585;SDS011;61865;50.232;18.614;2023-11-19T14:40:40;13.52;;;6.78;;
73585;SDS011;61865;50.232;18.614;2023-11-19T14:43:03;14.02;;;7.65;;
73585;SDS011;61865;50.232;18.614;2023-11-19T14:45:25;11.45;;;7.25;;
73585;SDS011;61865;50.232;18.614;2023-11-19T14:47:48;12.15;;;6.50;;
73585;SDS011;61865;50.232;18.614;2023-11-19T14:50:10;13.38;;;7.72;;